Time;durP1;ratioP1;P1;durP2;ratioP2;P2;SDS_P1;SDS_P2;PMS_P1;PMS_P2;Temp;Humidity;BMP_temperature;BMP_pressure;BME280_temperature;BME280_humidity;BME280_pressure;Samples;Min_cycle;Max_cycle;Signal;HPM_P1;HPM_P2
2021/06/24 00:00:15;;;;;;;0.70;0.60;;;13.40;99.90;;;14.06;100.00;-21063.91;5060116;28;20444;-75
2021/06/24 00:02:43;;;;;;;0.80;0.70;;;13.30;99.90;;;14.13;100.00;-21065.84;5089518;28;20420;-74
2021/06/24 00:05:11;;;;;;;0.70;0.60;;;13.30;99.90;;;14.11;100.00;-21065.28;5089409;28;20997;-75
2021/06/24 00:07:38;;;;;;;0.70;0.60;;;13.30;99.90;;;14.06;100.00;-21063.91;5072855;28;20969;-74
2021/06/24 00:10:09;;;;;;;0.70;0.60;;;13.30;99.90;;;14.05;100.00;-21063.63;5066357;28;20433;-76
2021/06/24 00:12:58;;;;;;;0.80;0.70;;;13.20;99.90;;;14.02;100.00;-21063.06;5054071;28;20412;-74
2021/06/24 00:15:25;;;;;;;0.70;0.70;;;13.20;99.90;;;14.05;100.00;-21063.63;5055646;28;20489;-75
2021/06/24 00:17:53;;;;;;;0.70;0.60;;;13.20;99.90;;;14.04;100.00;-21063.34;5072618;28;20430;-75
2021/06/24 00:20:21;;;;;;;0.73;0.70;;;13.20;99.90;;;14.00;100.00;-21062.41;5072618;28;20472;-76
2021/06/24 00:22:50;;;;;;;0.70;0.70;;;13.20;99.90;;;14.01;100.00;-21062.81;5067395;28;20456;-75
2021/06/24 00:25:19;;;;;;;0.70;0.70;;;13.20;99.90;;;14.02;100.00;-21063.06;5057924;28;20456;-73
2021/06/24 00:28:18;;;;;;;0.70;0.70;;;13.20;99.90;;;13.97;100.00;-21061.56;5053254;28;20447;-75
2021/06/24 00:30:48;;;;;;;0.70;0.60;;;13.20;99.90;;;14.04;100.00;-21063.34;5053392;28;20426;-74
2021/06/24 00:33:16;;;;;;;0.70;0.70;;;13.20;99.90;;;14.00;100.00;-21062.53;5052333;28;20441;-74
2021/06/24 00:35:45;;;;;;;0.70;0.60;;;13.20;99.90;;;14.05;100.00;-21063.63;5051697;28;20869;-75
2021/06/24 00:38:13;;;;;;;0.80;0.70;;;13.20;99.90;;;14.04;100.00;-21063.34;5053450;28;20444;-74
2021/06/24 00:40:43;;;;;;;0.70;0.60;;;13.10;99.90;;;13.99;100.00;-21062.25;5052407;28;20470;-74
2021/06/24 00:43:14;;;;;;;0.70;0.60;;;13.10;99.90;;;13.95;100.00;-21061.16;5076264;28;20487;-74
2021/06/24 00:45:42;;;;;;;0.80;0.70;;;13.10;99.90;;;13.95;100.00;-21061.00;5068214;28;20832;-75
2021/06/24 00:48:10;;;;;;;0.80;0.70;;;13.10;99.90;;;13.89;100.00;-21059.50;5052119;28;20908;-74
2021/06/24 00:50:41;;;;;;;0.70;0.60;;;13.10;99.90;;;13.86;100.00;-21058.66;5053410;28;20418;-75
2021/06/24 00:53:10;;;;;;;0.70;0.70;;;13.00;99.90;;;13.86;100.00;-21058.66;5051149;28;21037;-73
2021/06/24 00:55:43;;;;;;;0.70;0.70;;;13.00;99.90;;;13.90;100.00;-21059.63;5068220;28;20443;-74
2021/06/24 00:58:15;;;;;;;0.70;0.70;;;13.00;99.90;;;13.89;100.00;-21059.38;5066740;28;20499;-74
2021/06/24 01:00:46;;;;;;;0.70;0.60;;;13.00;99.90;;;13.93;100.00;-21060.59;5052300;28;20955;-73
2021/06/24 01:03:15;;;;;;;0.70;0.60;;;13.10;99.90;;;13.97;100.00;-21061.56;5051798;28;20472;-73
2021/06/24 01:05:47;;;;;;;0.70;0.60;;;13.10;99.90;;;14.11;100.00;-21065.41;5051425;28;20563;-74
2021/06/24 01:08:22;;;;;;;0.77;0.70;;;13.20;99.90;;;14.20;100.00;-21067.91;5051887;28;20445;-73
2021/06/24 01:10:54;;;;;;;0.70;0.70;;;13.30;99.90;;;14.30;100.00;-21070.38;5051990;28;20816;-73
2021/06/24 01:13:25;;;;;;;0.70;0.70;;;13.40;99.90;;;14.40;100.00;-21073.28;5035499;28;20599;-74
2021/06/24 01:15:55;;;;;;;0.70;0.70;;;13.50;99.90;;;14.48;100.00;-21075.34;5035020;28;20459;-74
2021/06/24 01:18:23;;;;;;;0.70;0.70;;;13.50;99.90;;;14.58;100.00;-21077.94;5052863;28;20407;-73
2021/06/24 01:20:53;;;;;;;0.70;0.60;;;13.60;99.90;;;14.69;100.00;-21080.97;5063202;28;21011;-74
2021/06/24 01:23:23;;;;;;;0.70;0.60;;;13.70;99.90;;;14.74;100.00;-21082.34;5085490;28;20898;-74
2021/06/24 01:25:54;;;;;;;0.80;0.70;;;13.80;99.90;;;14.79;100.00;-21083.59;5047934;28;20468;-74
2021/06/24 01:28:44;;;;;;;0.70;0.67;;;13.80;99.90;;;14.84;100.00;-21084.97;5073212;28;20511;-76
2021/06/24 01:31:14;;;;;;;0.70;0.70;;;13.90;99.90;;;14.89;100.00;-21086.50;5074654;28;20423;-74
2021/06/24 01:33:43;;;;;;;0.70;0.70;;;13.90;99.90;;;14.95;100.00;-21088.00;5076970;28;20423;-76
2021/06/24 01:36:11;;;;;;;0.70;0.70;;;14.00;99.90;;;14.95;100.00;-21088.13;5075651;28;20949;-74
2021/06/24 01:38:43;;;;;;;0.70;0.60;;;14.00;99.90;;;14.92;100.00;-21087.19;5071093;28;20461;-74
2021/06/24 01:41:32;;;;;;;0.70;0.70;;;14.00;99.90;;;14.86;100.00;-21085.53;5056471;28;20438;-75
2021/06/24 01:44:05;;;;;;;0.70;0.70;;;13.90;99.90;;;14.83;100.00;-21084.69;5063912;28;20524;-75
2021/06/24 01:46:35;;;;;;;0.70;0.63;;;13.90;99.90;;;14.81;100.00;-21084.28;5055995;28;20477;-75
2021/06/24 01:49:03;;;;;;;0.70;0.70;;;13.90;99.90;;;14.77;100.00;-21083.19;5056548;28;20443;-75
2021/06/24 01:51:33;;;;;;;0.70;0.70;;;13.90;99.90;;;14.73;100.00;-21082.22;5055117;28;20458;-75
2021/06/24 01:54:02;;;;;;;0.70;0.60;;;13.90;99.90;;;14.83;100.00;-21084.84;5057136;28;20464;-74
2021/06/24 01:56:29;;;;;;;0.70;0.60;;;13.90;99.90;;;14.81;100.00;-21084.16;5054689;28;20436;-73
2021/06/24 01:59:01;;;;;;;0.70;0.60;;;14.00;99.90;;;14.82;100.00;-21084.56;5070649;28;20402;-75
2021/06/24 02:02:10;;;;;;;0.70;0.60;;;14.00;99.90;;;-143.50;100.00;58913.53;5055220;28;20440;-74
2021/06/24 02:04:58;;;;;;;0.70;0.60;;;14.00;99.90;;;-143.50;100.00;58913.53;5056228;28;20855;-74
2021/06/24 02:07:31;;;;;;;0.70;0.70;;;14.10;99.90;;;-143.50;100.00;58913.53;5073463;28;20560;-74
2021/06/24 02:10:21;;;;;;;0.70;0.60;;;14.10;99.90;;;15.28;100.00;-21096.81;5075699;28;20767;-74
2021/06/24 02:12:57;;;;;;;0.70;0.60;;;14.20;99.90;;;15.27;100.00;-21096.66;5075447;28;20910;-75
2021/06/24 02:15:28;;;;;;;0.70;0.60;;;14.30;99.90;;;15.14;100.00;-21093.22;5074369;28;20428;-75
2021/06/24 02:17:56;;;;;;;0.70;0.60;;;14.20;99.90;;;15.14;100.00;-21093.09;5067387;28;20496;-74
2021/06/24 02:20:42;;;;;;;0.70;0.60;;;14.20;99.90;;;15.10;100.00;-21092.00;5071558;28;20487;-75
2021/06/24 02:23:20;;;;;;;0.80;0.70;;;14.20;99.90;;;15.20;100.00;-21094.75;5040902;28;20458;-74
2021/06/24 02:25:55;;;;;;;0.70;0.70;;;14.30;99.90;;;15.17;100.00;-21093.91;5051891;28;20512;-73
2021/06/24 02:28:34;;;;;;;0.70;0.70;;;14.30;99.90;;;15.26;100.00;-21096.38;5074290;28;20485;-76
2021/06/24 02:31:29;;;;;;;0.80;0.80;;;14.30;99.90;;;15.22;100.00;-21095.28;5075246;28;20971;-74
2021/06/24 02:34:04;;;;;;;0.70;0.70;;;14.30;99.90;;;15.09;100.00;-21091.84;5074707;28;20446;-74
2021/06/24 02:36:59;;;;;;;0.80;0.80;;;14.30;99.90;;;15.09;100.00;-21091.72;5075517;28;20449;-75
2021/06/24 02:39:49;;;;;;;0.70;0.60;;;14.20;99.90;;;15.08;100.00;-21091.56;5075485;28;20432;-73
2021/06/24 02:42:21;;;;;;;0.70;0.60;;;14.20;99.90;;;15.10;100.00;-21092.13;5073877;28;20455;-75
2021/06/24 02:44:49;;;;;;;0.80;0.73;;;14.20;99.90;;;15.10;100.00;-21092.13;5074173;28;20529;-75
2021/06/24 02:47:19;;;;;;;0.80;0.80;;;14.20;99.90;;;15.14;100.00;-21093.09;5074926;28;20858;-76
2021/06/24 02:49:49;;;;;;;0.70;0.60;;;14.30;99.90;;;15.15;100.00;-21093.50;5074193;28;20455;-74
2021/06/24 02:52:18;;;;;;;0.70;0.60;;;14.30;99.90;;;15.20;100.00;-21094.75;5067147;28;20793;-75
2021/06/24 02:54:50;;;;;;;0.70;0.60;;;14.30;99.90;;;15.29;100.00;-21097.22;5062083;28;20449;-75
2021/06/24 02:57:21;;;;;;;0.70;0.70;;;14.40;99.90;;;15.30;100.00;-21097.50;5038374;28;20440;-75
2021/06/24 03:00:01;;;;;;;0.70;0.60;;;14.40;99.90;;;15.26;100.00;-21096.25;5055143;28;20777;-75
2021/06/24 03:02:31;;;;;;;0.70;0.63;;;14.50;99.90;;;15.32;100.00;-21098.03;5054420;28;20542;-75
2021/06/24 03:05:06;;;;;;;0.70;0.60;;;14.50;99.90;;;15.38;100.00;-21099.56;5073038;28;20457;-75
2021/06/24 03:07:33;;;;;;;0.70;0.60;;;14.50;99.90;;;15.44;100.00;-21101.19;5055179;28;20475;-75
2021/06/24 03:10:28;;;;;;;0.70;0.60;;;14.60;99.90;;;15.46;100.00;-21101.88;5047403;28;20437;-75
2021/06/24 03:12:57;;;;;;;0.70;0.60;;;14.60;99.90;;;15.54;100.00;-21103.81;5052966;28;20480;-75
2021/06/24 03:15:25;;;;;;;0.70;0.60;;;14.70;99.90;;;15.56;100.00;-21104.50;5053183;28;20450;-75
2021/06/24 03:17:54;;;;;;;0.70;0.60;;;14.70;99.90;;;15.61;100.00;-21105.88;5054372;28;20494;-75
2021/06/24 03:20:27;;;;;;;0.80;0.70;;;14.70;99.90;;;15.68;100.00;-21107.66;5074857;28;20525;-76
2021/06/24 03:22:59;;;;;;;0.70;0.60;;;14.80;99.90;;;15.72;100.00;-21108.75;5074968;28;20837;-75
2021/06/24 03:25:28;;;;;;;0.70;0.60;;;14.80;99.90;;;15.77;100.00;-21110.00;5072547;28;20446;-75
2021/06/24 03:27:57;;;;;;;0.70;0.60;;;14.80;99.90;;;15.80;100.00;-21110.84;5067459;28;20492;-75
2021/06/24 03:30:52;;;;;;;0.70;0.60;;;14.80;99.90;;;15.75;100.00;-21109.59;5065770;28;20450;-75
2021/06/24 03:33:21;;;;;;;0.70;0.70;;;14.80;99.90;;;15.69;100.00;-21107.94;5064115;28;20426;-75
2021/06/24 03:35:50;;;;;;;0.70;0.60;;;14.80;99.90;;;15.60;100.00;-21105.47;5073315;28;20464;-75
2021/06/24 03:38:22;;;;;;;0.70;0.60;;;14.70;99.90;;;15.57;100.00;-21104.63;5069329;28;20528;-75
2021/06/24 03:40:53;;;;;;;0.70;0.60;;;14.70;99.90;;;15.48;100.00;-21102.16;5072239;28;20451;-75
2021/06/24 03:43:22;;;;;;;0.70;0.60;;;14.60;99.90;;;15.64;100.00;-21106.69;5076746;28;20413;-76
2021/06/24 03:45:49;;;;;;;0.70;0.70;;;14.60;99.90;;;15.57;100.00;-21104.78;5072322;28;20405;-75
2021/06/24 03:48:17;;;;;;;0.70;0.60;;;14.60;99.90;;;15.52;100.00;-21103.41;5058424;28;20430;-76
2021/06/24 03:50:48;;;;;;;0.80;0.70;;;14.60;99.90;;;15.60;100.00;-21105.47;5072051;28;20523;-75
2021/06/24 03:53:16;;;;;;;0.70;0.70;;;14.70;99.90;;;15.66;100.00;-21107.13;5071228;28;20563;-75
2021/06/24 03:55:44;;;;;;;0.70;0.60;;;14.70;99.90;;;15.63;100.00;-21106.44;5063685;28;20464;-75
2021/06/24 03:58:28;;;;;;;0.70;0.70;;;14.70;99.90;;;15.62;100.00;-21106.00;5071829;28;20450;-75
2021/06/24 04:00:57;;;;;;;0.70;0.70;;;14.80;99.90;;;15.65;100.00;-21106.84;5061989;28;20943;-75
2021/06/24 04:03:26;;;;;;;0.70;0.60;;;14.80;99.90;;;15.76;100.00;-21109.88;5052646;28;20431;-75
2021/06/24 04:06:09;;;;;;;0.70;0.60;;;14.80;99.90;;;15.86;100.00;-21112.63;5052731;28;20460;-75
2021/06/24 04:08:37;;;;;;;0.70;0.60;;;14.90;99.90;;;15.90;100.00;-21113.72;5069969;28;20504;-75
2021/06/24 04:11:16;;;;;;;0.70;0.60;;;14.90;99.90;;;15.91;100.00;-21113.84;5070921;28;20436;-75
2021/06/24 04:13:49;;;;;;;0.70;0.60;;;15.00;99.90;;;15.93;100.00;-21114.53;5058922;28;20446;-75
2021/06/24 04:16:40;;;;;;;0.70;0.70;;;15.10;99.90;;;16.00;100.00;-21116.19;5071717;28;20945;-75
2021/06/24 04:19:10;;;;;;;0.70;0.70;;;15.10;99.90;;;16.02;100.00;-21116.88;5071631;28;20438;-75
2021/06/24 04:21:40;;;;;;;0.70;0.70;;;15.10;99.90;;;15.96;100.00;-21115.22;5071807;28;20443;-75
2021/06/24 04:24:12;;;;;;;0.70;0.70;;;15.20;99.90;;;15.94;100.00;-21114.81;5071803;28;20553;-75
2021/06/24 04:26:39;;;;;;;0.70;0.60;;;15.20;99.90;;;15.97;100.00;-21115.38;5053238;28;20524;-75
2021/06/24 04:29:09;;;;;;;0.70;0.60;;;15.20;99.90;;;16.01;100.00;-21116.47;5068992;28;20461;-75
2021/06/24 04:31:36;;;;;;;0.70;0.70;;;15.20;99.90;;;16.03;100.00;-21117.00;5053305;28;20837;-75
2021/06/24 04:34:06;;;;;;;0.70;0.70;;;15.20;99.90;;;15.99;100.00;-21115.91;5068537;28;20801;-74
2021/06/24 04:36:50;;;;;;;0.70;0.60;;;15.20;99.90;;;16.05;100.00;-21117.56;5052399;28;20421;-75
2021/06/24 04:39:24;;;;;;;0.70;0.70;;;15.20;99.90;;;16.13;100.00;-21119.75;5068973;28;20454;-75
2021/06/24 04:42:22;;;;;;;1.43;1.33;;;15.20;99.90;;;16.21;100.00;-21121.97;5068644;28;20441;-75
2021/06/24 04:45:10;;;;;;;0.70;0.60;;;15.30;99.90;;;16.32;100.00;-21124.97;5052707;28;20443;-75
2021/06/24 04:47:51;;;;;;;0.70;0.70;;;15.40;99.90;;;16.45;100.00;-21053.06;5062924;28;20992;-76
2021/06/24 04:50:20;;;;;;;0.70;0.70;;;15.50;99.90;;;16.61;100.00;-20895.75;5072043;28;20547;-76
2021/06/24 04:52:52;;;;;;;0.70;0.70;;;15.60;99.90;;;16.70;100.00;-20670.41;5072642;28;20499;-75
2021/06/24 04:55:25;;;;;;;0.70;0.60;;;15.70;99.90;;;16.74;100.00;-20360.22;5071997;28;20437;-75
2021/06/24 04:57:57;;;;;;;0.70;0.67;;;15.80;99.90;;;16.82;100.00;-19957.63;5072276;28;20910;-76
2021/06/24 05:00:31;;;;;;;0.80;0.70;;;15.90;99.90;;;16.86;100.00;-19665.09;5073141;28;20491;-75
2021/06/24 05:03:17;;;;;;;0.70;0.60;;;16.00;99.90;;;16.90;100.00;-19220.50;5072669;28;20407;-76
2021/06/24 05:05:48;;;;;;;0.80;0.70;;;16.10;99.90;;;16.96;100.00;-18715.63;5070782;28;20541;-74
2021/06/24 05:08:20;;;;;;;0.70;0.70;;;16.10;99.90;;;17.01;100.00;-18108.94;5071846;28;20842;-75
2021/06/24 05:10:48;;;;;;;0.70;0.60;;;16.20;99.90;;;17.00;100.00;-17726.31;5073149;28;20810;-75
2021/06/24 05:13:16;;;;;;;0.70;0.60;;;16.20;99.90;;;17.22;100.00;-17034.28;5073025;28;20517;-76
2021/06/24 05:15:45;;;;;;;0.80;0.70;;;16.30;99.90;;;17.15;100.00;-16429.78;5071886;28;20925;-76
2021/06/24 05:18:14;;;;;;;0.70;0.60;;;16.20;99.90;;;17.31;100.00;-15722.97;5068346;28;20448;-75
2021/06/24 05:20:45;;;;;;;0.73;0.70;;;16.30;99.90;;;17.35;100.00;-15051.66;5052666;28;20436;-75
2021/06/24 05:23:14;;;;;;;0.80;0.80;;;16.40;99.90;;;17.30;100.00;-14594.19;5053394;28;20443;-76
2021/06/24 05:25:45;;;;;;;0.70;0.60;;;16.40;99.90;;;17.42;100.00;-13928.84;5054053;28;20492;-75
2021/06/24 05:28:13;;;;;;;0.70;0.70;;;16.50;99.90;;;17.35;100.00;-13339.22;5070981;28;20458;-75
2021/06/24 05:30:45;;;;;;;0.80;0.80;;;16.60;99.90;;;17.49;100.00;-13244.69;5072727;28;20418;-75
2021/06/24 05:33:13;;;;;;;0.80;0.70;;;16.60;99.90;;;17.53;100.00;-13082.88;5063184;28;20479;-75
2021/06/24 05:35:41;;;;;;;0.70;0.63;;;16.70;99.90;;;17.47;100.00;-13447.44;5067620;28;20423;-75
2021/06/24 05:38:11;;;;;;;1.27;1.17;;;16.70;99.90;;;17.48;100.00;-13457.72;5072281;28;20443;-76
2021/06/24 05:40:40;;;;;;;0.70;0.63;;;16.80;99.90;;;17.51;100.00;-13016.50;5073208;28;20442;-76
2021/06/24 05:43:09;;;;;;;0.80;0.70;;;16.80;99.90;;;17.43;100.00;-13330.09;5072290;28;20521;-76
2021/06/24 05:45:36;;;;;;;0.70;0.60;;;16.80;99.90;;;17.56;100.00;-13682.28;5072600;28;20890;-75
2021/06/24 05:48:05;;;;;;;0.70;0.60;;;16.80;99.90;;;17.55;100.00;-14575.53;5067262;28;20467;-76
2021/06/24 05:50:34;;;;;;;0.70;0.60;;;16.80;99.90;;;17.53;100.00;-15011.59;5059559;28;20439;-76
2021/06/24 05:53:02;;;;;;;0.70;0.60;;;16.80;99.90;;;17.50;100.00;-15741.63;5071604;28;20409;-76
2021/06/24 05:55:48;;;;;;;0.70;0.60;;;16.80;99.90;;;17.48;100.00;-16238.34;5072060;28;20457;-75
2021/06/24 05:58:19;;;;;;;0.70;0.60;;;16.70;99.90;;;17.43;100.00;-16769.72;5088172;28;20409;-76
2021/06/24 06:00:48;;;;;;;0.70;0.60;;;16.70;99.90;;;17.33;100.00;-16990.94;5072118;28;21332;-76
2021/06/24 06:03:15;;;;;;;0.70;0.67;;;16.70;99.90;;;17.27;100.00;-17248.22;5071075;28;20430;-75
2021/06/24 06:05:43;;;;;;;0.70;0.60;;;16.70;99.90;;;17.26;100.00;-17339.22;5088095;28;20438;-76
2021/06/24 06:08:11;;;;;;;0.73;0.70;;;16.60;99.90;;;17.34;100.00;-17584.22;5067134;28;20478;-75
2021/06/24 06:10:40;;;;;;;0.70;0.70;;;16.60;99.90;;;17.35;100.00;-18344.53;5071922;28;20842;-76
2021/06/24 06:13:09;;;;;;;1.00;1.00;;;16.60;99.90;;;17.33;100.00;-18202.31;5070934;28;20487;-76
2021/06/24 06:15:40;;;;;;;0.70;0.60;;;16.70;99.90;;;17.42;100.00;-18551.25;5071872;28;20476;-76
2021/06/24 06:18:14;;;;;;;0.70;0.60;;;16.70;99.90;;;17.53;100.00;-19250.66;5069879;28;20442;-76
2021/06/24 06:20:44;;;;;;;0.70;0.60;;;16.70;99.90;;;17.64;100.00;-19823.47;5054232;28;20438;-76
2021/06/24 06:23:12;;;;;;;0.70;0.60;;;16.80;99.90;;;17.82;100.00;-20692.16;5055957;28;20489;-76
2021/06/24 06:25:40;;;;;;;0.70;0.60;;;16.90;99.90;;;17.84;100.00;-21165.88;5055868;28;20460;-77
2021/06/24 06:28:09;;;;;;;0.70;0.60;;;17.00;99.90;;;17.91;100.00;-21167.50;5055161;28;20484;-76
2021/06/24 06:30:39;;;;;;;0.70;0.70;;;17.10;99.90;;;18.07;100.00;-21172.03;5054934;28;20774;-75
2021/06/24 06:33:06;;;;;;;0.70;0.60;;;17.10;99.90;;;17.93;100.00;-21168.06;5055837;28;20467;-75
2021/06/24 06:35:34;;;;;;;0.70;0.60;;;17.20;99.90;;;17.91;100.00;-21167.66;5054330;28;20517;-75
2021/06/24 06:38:02;;;;;;;0.70;0.60;;;17.30;99.90;;;18.04;100.00;-21171.06;5055200;28;20933;-76
2021/06/24 06:40:32;;;;;;;0.70;0.70;;;17.30;99.90;;;18.06;100.00;-21171.63;5056009;28;20424;-76
2021/06/24 06:43:03;;;;;;;0.70;0.60;;;17.30;99.90;;;18.44;100.00;-21181.88;5060214;28;20424;-75
2021/06/24 06:45:33;;;;;;;0.70;0.60;;;17.40;99.90;;;18.49;100.00;-21183.13;5074837;28;20922;-75
2021/06/24 06:48:03;;;;;;;0.70;0.60;;;17.50;99.90;;;18.42;100.00;-21181.22;5072281;28;20521;-75
2021/06/24 06:50:31;;;;;;;0.70;0.60;;;17.60;99.90;;;18.69;100.00;-21188.59;5073533;28;20443;-75
2021/06/24 06:52:59;;;;;;;0.70;0.60;;;17.80;99.90;;;18.76;100.00;-21190.53;5073307;28;20459;-75
2021/06/24 06:55:30;;;;;;;0.70;0.60;;;17.80;99.90;;;18.79;100.00;-21191.22;5073984;28;20829;-75
2021/06/24 06:57:59;;;;;;;0.70;0.60;;;17.90;99.90;;;18.89;100.00;-21193.94;5075390;28;20481;-75
2021/06/24 07:00:29;;;;;;;0.70;0.70;;;18.10;99.90;;;18.96;100.00;-21195.84;5073662;28;20451;-75
2021/06/24 07:02:58;;;;;;;0.70;0.60;;;18.10;99.90;;;19.07;100.00;-21198.72;5073199;28;20415;-75
2021/06/24 07:05:28;;;;;;;0.80;0.70;;;18.20;99.90;;;19.14;100.00;-21200.66;5075019;28;20504;-75
2021/06/24 07:07:57;;;;;;;0.70;0.60;;;18.40;99.90;;;19.62;100.00;-21213.34;5074460;28;20453;-75
2021/06/24 07:10:27;;;;;;;0.70;0.63;;;18.50;99.90;;;19.33;100.00;-21205.72;5074968;28;20398;-75
2021/06/24 07:12:54;;;;;;;0.70;0.60;;;18.60;99.90;;;19.51;100.00;-21210.63;5074350;28;20473;-76
2021/06/24 07:15:22;;;;;;;0.70;0.60;;;18.70;99.90;;;19.79;100.00;-21218.16;5073543;28;20401;-76
2021/06/24 07:17:52;;;;;;;0.70;0.60;;;18.80;99.90;;;19.82;100.00;-21218.69;5071685;28;20424;-75
2021/06/24 07:20:20;;;;;;;0.70;0.70;;;18.90;99.90;;;20.12;100.00;-21226.91;5070540;28;20416;-75
2021/06/24 07:22:50;;;;;;;0.70;0.60;;;19.00;99.90;;;20.13;100.00;-21227.16;5053019;28;20940;-75
2021/06/24 07:25:19;;;;;;;0.80;0.73;;;19.10;99.90;;;20.40;100.00;-21234.41;5070155;28;20417;-75
2021/06/24 07:27:47;;;;;;;0.70;0.60;;;19.20;99.90;;;20.49;100.00;-21236.88;5057255;28;20473;-76
2021/06/24 07:30:16;;;;;;;0.70;0.60;;;19.40;99.90;;;20.37;100.00;-21233.59;5065315;28;20887;-75
2021/06/24 07:32:45;;;;;;;0.70;0.60;;;19.50;99.90;;;20.46;100.00;-21235.91;5074423;28;20394;-76
2021/06/24 07:35:13;;;;;;;1.67;1.57;;;19.50;99.90;;;20.38;100.00;-21233.72;5074575;28;20397;-76
2021/06/24 07:37:44;;;;;;;0.70;0.60;;;19.40;99.90;;;20.09;100.00;-21226.06;5073330;28;20437;-76
2021/06/24 07:40:14;;;;;;;0.90;0.90;;;19.30;99.90;;;20.21;100.00;-21229.34;5072329;28;20420;-76
2021/06/24 07:42:42;;;;;;;0.70;0.60;;;19.30;99.90;;;20.42;100.00;-21234.94;5072407;28;20470;-76
2021/06/24 07:45:11;;;;;;;0.70;0.60;;;19.40;99.90;;;20.55;100.00;-21238.38;5074306;28;20999;-76
2021/06/24 07:47:38;;;;;;;0.70;0.60;;;19.50;99.90;;;20.56;100.00;-21238.66;5072286;28;20455;-76
2021/06/24 07:50:07;;;;;;;0.70;0.60;;;19.50;99.90;;;20.43;100.00;-21235.09;5053493;28;20482;-76
2021/06/24 07:52:35;;;;;;;0.80;0.60;;;19.50;99.90;;;20.14;100.00;-21227.31;5053068;28;20468;-76
2021/06/24 07:55:03;;;;;;;1.20;1.10;;;19.50;99.90;;;20.59;100.00;-21239.31;5054323;28;20409;-76
2021/06/24 07:57:32;;;;;;;0.80;0.80;;;19.70;99.90;;;20.54;100.00;-21238.09;5054277;28;20403;-75
2021/06/24 08:02:44;;;;;;;0.80;0.73;;;19.70;99.90;;;20.42;100.00;-21234.94;5016707;28;20568;-75
2021/06/24 08:05:18;;;;;;;0.80;0.60;;;19.80;99.90;;;20.54;100.00;-21238.09;5000314;28;20444;-75
2021/06/24 08:07:48;;;;;;;0.70;0.63;;;19.90;99.90;;;20.67;100.00;-21241.50;5003713;28;20437;-75
2021/06/24 08:10:16;;;;;;;0.70;0.60;;;20.00;99.90;;;20.70;100.00;-21242.47;4981994;28;20427;-75
2021/06/24 08:12:44;;;;;;;0.80;0.70;;;20.10;99.90;;;20.95;100.00;-21249.00;4987587;28;20406;-76
2021/06/24 08:15:15;;;;;;;0.70;0.60;;;20.20;99.90;;;21.00;100.00;-21250.38;4986702;28;20426;-75
2021/06/24 08:17:45;;;;;;;0.80;0.70;;;20.30;99.90;;;21.14;100.00;-21254.19;4971456;28;20843;-77
2021/06/24 08:20:15;;;;;;;0.70;0.60;;;20.60;99.90;;;21.71;100.00;-21269.47;4988415;28;20526;-75
2021/06/24 08:22:42;;;;;;;0.70;0.60;;;20.80;99.90;;;22.02;100.00;-21277.50;4986684;28;20577;-75
2021/06/24 08:25:13;;;;;;;0.80;0.60;;;21.10;99.90;;;22.36;100.00;-21286.66;4984501;28;20420;-75
2021/06/24 08:27:40;;;;;;;0.80;0.70;;;21.40;99.90;;;22.26;100.00;-21283.91;4986035;28;20443;-76
2021/06/24 08:30:09;;;;;;;0.70;0.60;;;21.50;99.90;;;22.52;100.00;-21291.00;4988756;28;20835;-76
2021/06/24 08:32:39;;;;;;;0.70;0.60;;;21.60;99.90;;;22.34;100.00;-21286.22;4990073;28;20411;-76
2021/06/24 08:35:12;;;;;;;0.80;0.60;;;21.80;99.90;;;22.84;100.00;-21299.44;4988263;28;20518;-76
2021/06/24 08:37:41;;;;;;;0.70;0.60;;;22.10;99.90;;;22.56;100.00;-21292.09;4989602;28;20416;-76
2021/06/24 08:40:11;;;;;;;0.80;0.60;;;21.90;99.90;;;23.13;100.00;-21307.34;4989349;28;20982;-76
2021/06/24 08:42:39;;;;;;;0.80;0.70;;;22.00;99.90;;;23.36;100.00;-21313.31;4987536;28;20450;-76
2021/06/24 08:45:11;;;;;;;0.70;0.70;;;22.20;99.90;;;22.69;100.00;-21295.34;5001924;28;20438;-76
2021/06/24 08:47:41;;;;;;;0.80;0.60;;;22.40;99.90;;;23.07;100.00;-21305.69;4988125;28;20815;-76
2021/06/24 08:50:12;;;;;;;1.63;1.53;;;22.50;99.90;;;23.44;100.00;-21315.50;4973499;28;20470;-76
2021/06/24 08:52:41;;;;;;;1.30;1.20;;;22.60;99.90;;;23.60;100.00;-21319.69;4971690;28;20813;-76
2021/06/24 08:55:09;;;;;;;0.70;0.50;;;22.70;99.90;;;22.85;100.00;-21299.72;4989107;28;20419;-76
2021/06/24 08:57:38;;;;;;;0.70;0.60;;;22.80;99.90;;;22.17;100.00;-21281.75;4988860;28;20573;-76
2021/06/24 09:00:08;;;;;;;0.80;0.70;;;22.70;99.90;;;22.17;100.00;-21281.75;4990607;28;20434;-75
2021/06/24 09:02:40;;;;;;;0.70;0.60;;;22.60;99.90;;;21.94;100.00;-21275.59;5004336;28;20477;-75
2021/06/24 09:05:11;;;;;;;0.70;0.57;;;22.30;99.90;;;21.99;100.00;-21276.84;5021886;28;20453;-75
2021/06/24 09:07:51;;;;;;;0.70;0.60;;;22.20;99.90;;;21.79;100.00;-21271.38;5007733;28;20429;-75
2021/06/24 09:10:20;;;;;;;0.70;0.60;;;22.10;99.90;;;21.66;100.00;-21268.13;5008267;28;20464;-75
2021/06/24 09:12:54;;;;;;;0.70;0.50;;;21.80;99.90;;;21.63;100.00;-21267.28;5000945;28;20431;-75
2021/06/24 09:15:23;;;;;;;2.13;0.87;;;21.50;99.90;;;21.31;100.00;-21258.56;5026797;28;20506;-75
2021/06/24 09:17:52;;;;;;;0.80;0.67;;;21.10;99.90;;;20.94;100.00;-21248.88;4993711;28;20434;-75
2021/06/24 09:20:33;;;;;;;0.80;0.60;;;21.00;99.90;;;20.76;100.00;-21243.97;4993029;28;20923;-76
2021/06/24 09:23:10;;;;;;;1.20;0.90;;;20.90;99.90;;;21.58;100.00;-21265.94;4993183;28;20474;-74
2021/06/24 09:25:41;;;;;;;0.70;0.50;;;21.00;99.90;;;21.89;100.00;-21274.09;4994236;28;20465;-76
2021/06/24 09:28:10;;;;;;;0.70;0.60;;;21.50;99.90;;;22.35;100.00;-21286.38;4994926;28;20454;-76
2021/06/24 09:30:42;;;;;;;0.70;0.60;;;21.90;99.90;;;22.65;100.00;-21294.53;4994872;28;20458;-76
2021/06/24 09:33:12;;;;;;;0.80;0.70;;;22.20;99.90;;;22.64;100.00;-21294.28;4995031;28;20444;-76
2021/06/24 09:35:54;;;;;;;0.80;0.70;;;22.50;99.90;;;23.06;100.00;-21305.44;4973995;28;20414;-75
2021/06/24 09:38:22;;;;;;;0.70;0.60;;;22.50;99.90;;;23.80;100.00;-21325.16;4974289;28;20466;-76
2021/06/24 09:40:53;;;;;;;0.80;0.80;;;22.70;99.90;;;23.64;100.00;-21320.78;4955699;28;20857;-75
2021/06/24 09:43:33;;;;;;;0.70;0.60;;;23.00;99.90;;;23.56;100.00;-21318.75;4956072;28;20466;-74
2021/06/24 09:46:07;;;;;;;0.70;0.60;;;23.40;99.90;;;23.67;100.00;-21321.59;4973989;28;20459;-75
2021/06/24 09:48:37;;;;;;;0.70;0.60;;;23.70;99.90;;;24.35;100.00;-21339.81;4974717;28;20438;-72
2021/06/24 09:51:17;;;;;;;0.70;0.50;;;23.70;99.90;;;24.46;100.00;-21342.66;4975466;28;20427;-75
2021/06/24 09:53:55;;;;;;;0.70;0.50;;;23.70;99.90;;;24.46;100.00;-21342.66;4972140;28;20459;-75
2021/06/24 09:56:26;;;;;;;0.70;0.60;;;23.80;99.90;;;24.46;100.00;-21342.66;4973610;28;21318;-74
2021/06/24 09:59:31;;;;;;;0.97;0.80;;;23.80;99.90;;;22.98;100.00;-21303.13;4992307;28;20427;-74
2021/06/24 10:02:11;;;;;;;0.80;0.60;;;23.20;99.90;;;22.83;100.00;-21299.16;4990534;28;20568;-75
2021/06/24 10:04:41;;;;;;;0.70;0.50;;;22.70;99.90;;;22.93;100.00;-21301.75;4990917;28;20439;-75
2021/06/24 10:07:12;;;;;;;0.90;0.90;;;22.70;99.90;;;22.78;100.00;-21297.81;4992976;28;20777;-75
2021/06/24 10:09:42;;;;;;;0.70;0.60;;;22.70;99.90;;;23.07;100.00;-21305.69;4992976;28;20482;-75
2021/06/24 10:12:12;;;;;;;0.70;0.60;;;22.80;99.90;;;23.36;100.00;-21313.44;4972591;28;20439;-74
2021/06/24 10:14:45;;;;;;;0.70;0.60;;;22.80;99.90;;;23.32;100.00;-21312.38;4973941;28;20426;-74
2021/06/24 10:17:13;;;;;;;0.70;0.60;;;23.00;99.90;;;23.69;100.00;-21322.03;4973873;28;20430;-74
2021/06/24 10:19:43;;;;;;;0.70;0.50;;;23.30;99.90;;;23.94;100.00;-21328.81;4973033;28;20530;-75
2021/06/24 10:22:15;;;;;;;0.70;0.50;;;23.70;99.90;;;25.12;100.00;-21360.19;5001964;28;20470;-74
2021/06/24 10:24:51;;;;;;;0.70;0.53;;;24.10;99.90;;;24.84;100.00;-21352.72;4972792;28;20866;-75
2021/06/24 10:27:22;;;;;;;0.70;0.60;;;24.40;99.90;;;25.15;100.00;-21360.84;4973945;28;20435;-75